首页
METAR-TAF:

METAR-TAF

机场 :

克里沃罗格, 乌克兰

纬度: 48-03N, 经度: 033-13-12E, 海拔: 124米

当前天气观测

该预报发布于23分钟前的13:30 UTC
风速4节,风向,在南转南东西南之间变化
温度 2°C
湿度 80%
气压 1018 hPa
能见度10公里或以上
1500米以下无云,无积雨云

METAR: UKDR 271330Z 19002MPS 160V230 CAVOK 02/M01 Q1018 R36/09//70 NOSIG

时间: 15:53 (13:53 UTC)

预报

该预报发布于2小时和48分钟前的11:05 UTC
预报有效从27日的 12点(UTC)到 28日的 12点(UTC)
风速4节,风向南转西南
能見度: 4000
阴天层高于500英尺
轻雾
短暂存在
从 27日的 12点(UTC)到 27日的 18点(UTC)
能見度: 1100
阴天层高于300英尺
轻雾
成为
从 27日的 18点(UTC)到 27日的 20点(UTC)
风速2节,风向多变
能見度: 0400
层高于200英尺
成为
从 28日的 08点(UTC)到 28日的 10点(UTC)
能見度: 3100
阴天层高于500英尺
轻雾

TAF: UKDR 271105Z 2712/2812 20002MPS 4000 BR OVC005 TX03/2712Z TN00/2804Z TEMPO 2712/2718 1100 BR OVC003 BECMG 2718/2720 VRB01MPS 0400 FG VV002 BECMG 2808/2810 3100 BR OVC005

超过4000个机场的气象观测和天气预报(METAR&TAF报告)。

可查询的气象台以黄色和红色小点在地图上表示。

将鼠标移到小点上方,可查看气象台名称。

然后点击查看天气观测和预报。

如需切换地图:点击带黑十字的绿色按钮放大地图;点击带横线的绿色按钮缩小地图;或者点击绿色箭头查看邻近地区的地图。


METAR-TAF: